Time;durP1;ratioP1;P1;durP2;ratioP2;P2;SDS_P1;SDS_P2;PMS_P1;PMS_P2;Temp;Humidity;BMP_temperature;BMP_pressure;BME280_temperature;BME280_humidity;BME280_pressure;Samples;Min_cycle;Max_cycle;Signal;HPM_P1;HPM_P2
2024/03/01 00:01:36;;;;;;;;;;;;;;;4.08;100.00;95476.72;5064098;28;19941;-71
2024/03/01 00:04:01;;;;;;;;;;;;;;;4.10;100.00;95479.13;5063294;28;19952;-71
2024/03/01 00:06:27;;;;;;;;;;;;;;;4.13;100.00;95482.09;5045437;28;19941;-71
2024/03/01 00:08:53;;;;;;;;;;;;;;;4.16;100.00;95488.66;5063615;28;20007;-71
2024/03/01 00:11:19;;;;;;;;;;;;;;;4.16;100.00;95483.47;5063243;28;19940;-74
2024/03/01 00:13:45;;;;;;;;;;;;;;;4.18;100.00;95491.88;5063514;28;19939;-73
2024/03/01 00:16:11;;;;;;;;;;;;;;;4.19;100.00;95498.66;5029797;28;19948;-74
2024/03/01 00:18:37;;;;;;;;;;;;;;;4.20;100.00;95495.06;5045549;28;20220;-73
2024/03/01 00:21:03;;;;;;;;;;;;;;;4.17;100.00;95491.06;5063936;28;19964;-73
2024/03/01 00:23:29;;;;;;;;;;;;;;;4.18;100.00;95490.09;5063043;28;19933;-73
2024/03/01 00:25:55;;;;;;;;;;;;;;;4.19;100.00;95483.09;5063850;28;20199;-74
2024/03/01 00:28:21;;;;;;;;;;;;;;;4.19;100.00;95480.50;5062997;28;19984;-74
2024/03/01 00:30:47;;;;;;;;;;;;;;;4.20;100.00;95476.88;5045413;28;19976;-70
2024/03/01 00:33:12;;;;;;;;;;;;;;;4.20;100.00;95477.72;5065367;28;19930;-72
2024/03/01 00:35:39;;;;;;;;;;;;;;;4.22;100.00;95474.91;5048540;28;19954;-73
2024/03/01 00:38:04;;;;;;;;;;;;;;;4.22;100.00;95478.31;5049737;28;20118;-73
2024/03/01 00:40:30;;;;;;;;;;;;;;;4.23;100.00;95476.50;5066593;28;19942;-73
2024/03/01 00:42:56;;;;;;;;;;;;;;;4.24;100.00;95480.69;5048838;28;19941;-72
2024/03/01 00:45:22;;;;;;;;;;;;;;;4.25;100.00;95482.28;5032823;28;19943;-73
2024/03/01 00:47:49;;;;;;;;;;;;;;;4.24;100.00;95476.31;5066388;28;19933;-73
2024/03/01 00:50:15;;;;;;;;;;;;;;;4.25;100.00;95479.69;5049441;28;19939;-71
2024/03/01 00:52:42;;;;;;;;;;;;;;;4.26;100.00;95489.06;5066614;28;20181;-79
2024/03/01 00:55:08;;;;;;;;;;;;;;;4.24;100.00;95489.28;5067105;28;20103;-78
2024/03/01 00:57:33;;;;;;;;;;;;;;;4.23;100.00;95500.66;5032160;28;19942;-78
2024/03/01 00:59:59;;;;;;;;;;;;;;;4.21;100.00;95515.63;5066546;28;19936;-80
2024/03/01 01:02:25;;;;;;;;;;;;;;;4.17;100.00;95501.44;5048702;28;19946;-79
2024/03/01 01:04:51;;;;;;;;;;;;;;;4.16;100.00;95512.03;5048474;28;19940;-79
2024/03/01 01:07:19;;;;;;;;;;;;;;;4.15;100.00;95505.25;5065996;28;19981;-72
2024/03/01 01:09:46;;;;;;;;;;;;;;;4.12;100.00;95497.88;5048655;28;19955;-74
2024/03/01 01:12:12;;;;;;;;;;;;;;;4.10;100.00;95481.72;5048013;28;20050;-73
2024/03/01 01:14:37;;;;;;;;;;;;;;;4.11;100.00;95483.28;5048106;28;20233;-73
2024/03/01 01:17:03;;;;;;;;;;;;;;;4.11;100.00;95488.50;5048122;28;20217;-72
2024/03/01 01:19:29;;;;;;;;;;;;;;;4.09;100.00;95486.09;5065790;28;19940;-73
2024/03/01 01:21:56;;;;;;;;;;;;;;;4.10;100.00;95490.28;5065750;28;19945;-73
2024/03/01 01:24:22;;;;;;;;;;;;;;;4.09;100.00;95477.50;5048197;28;19937;-73
2024/03/01 01:26:47;;;;;;;;;;;;;;;4.06;100.00;95476.91;5047827;28;19982;-72
2024/03/01 01:29:13;;;;;;;;;;;;;;;4.08;100.00;95487.09;5031996;28;20208;-72
2024/03/01 01:31:39;;;;;;;;;;;;;;;4.04;100.00;95476.31;5047724;28;19972;-71
2024/03/01 01:34:05;;;;;;;;;;;;;;;4.04;100.00;95478.91;5066030;28;20265;-71
2024/03/01 01:36:31;;;;;;;;;;;;;;;4.05;100.00;95477.09;5065229;28;20155;-71
2024/03/01 01:38:57;;;;;;;;;;;;;;;4.05;100.00;95474.50;5065413;28;19979;-72
2024/03/01 01:41:23;;;;;;;;;;;;;;;4.04;100.00;95462.56;5048334;28;19983;-72
2024/03/01 01:43:49;;;;;;;;;;;;;;;4.07;100.00;95465.56;5047167;28;19991;-71
2024/03/01 01:46:15;;;;;;;;;;;;;;;4.09;100.00;95460.16;5065280;28;20218;-71
2024/03/01 01:48:42;;;;;;;;;;;;;;;4.11;100.00;95462.53;5065129;28;19951;-81
2024/03/01 01:51:09;;;;;;;;;;;;;;;4.11;100.00;95457.34;5065976;28;19941;-81
2024/03/01 01:53:35;;;;;;;;;;;;;;;4.10;100.00;95446.19;5065650;28;19938;-82
2024/03/01 01:56:01;;;;;;;;;;;;;;;4.11;100.00;95437.38;5065165;28;19956;-82
2024/03/01 01:58:28;;;;;;;;;;;;;;;4.13;100.00;95438.00;5065853;28;19934;-81
2024/03/01 02:00:54;;;;;;;;;;;;;;;4.15;100.00;95432.59;5047397;28;19947;-79
2024/03/01 02:03:21;;;;;;;;;;;;;;;4.17;100.00;95434.00;5065513;28;19938;-71
2024/03/01 02:05:48;;;;;;;;;;;;;;;4.20;100.00;95440.56;5046870;28;19945;-73
2024/03/01 02:08:14;;;;;;;;;;;;;;;4.19;100.00;95439.78;5030995;28;19962;-74
2024/03/01 02:10:40;;;;;;;;;;;;;;;4.18;100.00;95437.38;5031158;28;19941;-73
2024/03/01 02:13:16;;;;;;;;;;;;;;;4.18;100.00;95433.00;5047048;28;20122;-74
2024/03/01 02:15:42;;;;;;;;;;;;;;;4.21;100.00;95449.97;5065519;28;19946;-73
2024/03/01 02:18:08;;;;;;;;;;;;;;;4.22;100.00;95448.94;5047246;28;19946;-73
2024/03/01 02:20:35;;;;;;;;;;;;;;;4.21;100.00;95447.38;5046938;28;19943;-73
2024/03/01 02:23:06;;;;;;;;;;;;;;;4.23;100.00;95429.78;5047553;28;19938;-71
2024/03/01 02:25:32;;;;;;;;;;;;;;;4.22;100.00;95412.63;5065376;28;19959;-73
2024/03/01 02:27:58;;;;;;;;;;;;;;;4.23;100.00;95430.59;5047273;28;19941;-73
2024/03/01 02:30:24;;;;;;;;;;;;;;;4.24;100.00;95428.78;5046617;28;19965;-73
2024/03/01 02:32:49;;;;;;;;;;;;;;;4.25;100.00;95430.38;5047148;28;20109;-73
2024/03/01 02:35:15;;;;;;;;;;;;;;;4.25;100.00;95443.38;5047255;28;19943;-72
2024/03/01 02:37:44;;;;;;;;;;;;;;;4.22;100.00;95447.16;5043169;28;19971;-72
2024/03/01 02:40:11;;;;;;;;;;;;;;;4.17;100.00;95440.97;5043696;28;20137;-72
2024/03/01 02:42:37;;;;;;;;;;;;;;;4.15;100.00;95423.00;5043132;28;19936;-71
2024/03/01 02:45:03;;;;;;;;;;;;;;;4.15;100.00;95410.03;5044983;28;20018;-71
2024/03/01 02:47:30;;;;;;;;;;;;;;;4.17;100.00;95415.03;5044265;28;19937;-71
2024/03/01 02:49:56;;;;;;;;;;;;;;;4.17;100.00;95408.03;5043645;28;20020;-71
2024/03/01 02:52:22;;;;;;;;;;;;;;;4.17;100.00;95404.66;5043728;28;19975;-72
2024/03/01 02:54:47;;;;;;;;;;;;;;;4.18;100.00;95403.63;5044220;28;19941;-72
2024/03/01 02:57:13;;;;;;;;;;;;;;;4.20;100.00;95401.63;5043753;28;19986;-80
2024/03/01 02:59:39;;;;;;;;;;;;;;;4.21;100.00;95391.06;5043591;28;19950;-71
2024/03/01 03:02:05;;;;;;;;;;;;;;;4.22;100.00;95397.06;5043983;28;19939;-72
2024/03/01 03:04:31;;;;;;;;;;;;;;;4.22;100.00;95399.63;5027016;28;20240;-72
2024/03/01 03:06:58;;;;;;;;;;;;;;;4.22;100.00;95405.66;5043971;28;19938;-72
2024/03/01 03:09:24;;;;;;;;;;;;;;;4.24;100.00;95406.25;5044280;28;20140;-72
2024/03/01 03:11:50;;;;;;;;;;;;;;;4.26;100.00;95406.84;5043893;28;19942;-72
2024/03/01 03:14:16;;;;;;;;;;;;;;;4.27;100.00;95416.22;5043862;28;19932;-72
2024/03/01 03:16:42;;;;;;;;;;;;;;;4.26;100.00;95422.41;5043777;28;19940;-74
2024/03/01 03:19:08;;;;;;;;;;;;;;;4.25;100.00;95425.19;5026767;28;19987;-80
2024/03/01 03:21:34;;;;;;;;;;;;;;;4.25;100.00;95414.81;5042649;28;19945;-80
2024/03/01 03:24:01;;;;;;;;;;;;;;;4.26;100.00;95413.81;5043713;28;19940;-80
2024/03/01 03:26:26;;;;;;;;;;;;;;;4.30;100.00;95414.22;5044176;28;20113;-80
2024/03/01 03:28:52;;;;;;;;;;;;;;;4.32;100.00;95415.59;5044180;28;19954;-80
2024/03/01 03:31:18;;;;;;;;;;;;;;;4.36;100.00;95419.38;5044176;28;19964;-80
2024/03/01 03:33:44;;;;;;;;;;;;;;;4.37;100.00;95430.56;5026806;28;20018;-73
2024/03/01 03:36:10;;;;;;;;;;;;;;;4.38;100.00;95429.56;5026549;28;20245;-71
2024/03/01 03:38:36;;;;;;;;;;;;;;;4.34;100.00;95442.13;5044039;28;19982;-70
2024/03/01 03:41:02;;;;;;;;;;;;;;;4.27;100.00;95444.75;5043745;28;19980;-70
2024/03/01 03:43:28;;;;;;;;;;;;;;;4.19;100.00;95447.56;5044019;28;19973;-70
2024/03/01 03:45:54;;;;;;;;;;;;;;;4.11;100.00;95452.97;5044007;28;19938;-70
2024/03/01 03:48:20;;;;;;;;;;;;;;;4.05;100.00;95461.53;5042671;28;19948;-70
2024/03/01 03:50:46;;;;;;;;;;;;;;;3.99;100.00;95450.19;5043981;28;19936;-70
2024/03/01 03:53:12;;;;;;;;;;;;;;;3.96;100.00;95450.56;5043495;28;19935;-70
2024/03/01 03:55:37;;;;;;;;;;;;;;;3.98;100.00;95450.38;5043119;28;19936;-70
2024/03/01 03:58:04;;;;;;;;;;;;;;;4.01;100.00;95449.97;5043037;28;19941;-70
2024/03/01 04:00:29;;;;;;;;;;;;;;;4.03;100.00;95450.56;5043611;28;19946;-71
2024/03/01 04:02:55;;;;;;;;;;;;;;;4.06;100.00;95455.38;5043896;28;19938;-70
2024/03/01 04:05:21;;;;;;;;;;;;;;;4.09;100.00;95457.53;5043397;28;20134;-70
2024/03/01 04:07:47;;;;;;;;;;;;;;;4.12;100.00;95458.97;5045779;28;19975;-70
2024/03/01 04:10:13;;;;;;;;;;;;;;;4.14;100.00;95467.34;5047229;28;19983;-70
2024/03/01 04:12:41;;;;;;;;;;;;;;;4.16;100.00;95471.31;5047151;28;19948;-70
2024/03/01 04:15:07;;;;;;;;;;;;;;;4.19;100.00;95490.88;5045952;28;19944;-74
2024/03/01 04:17:33;;;;;;;;;;;;;;;4.19;100.00;95491.66;5045811;28;19951;-73
2024/03/01 04:19:59;;;;;;;;;;;;;;;4.21;100.00;95491.47;5028751;28;19943;-74
2024/03/01 04:22:26;;;;;;;;;;;;;;;4.20;100.00;95485.50;5045269;28;20004;-74
2024/03/01 04:24:54;;;;;;;;;;;;;;;4.20;100.00;95487.28;5045625;28;19941;-74
2024/03/01 04:27:21;;;;;;;;;;;;;;;4.19;100.00;95483.09;5045837;28;19942;-74
2024/03/01 04:29:47;;;;;;;;;;;;;;;4.21;100.00;95473.31;5045796;28;19948;-78
2024/03/01 04:32:13;;;;;;;;;;;;;;;4.22;100.00;95478.31;5028689;28;20259;-74
2024/03/01 04:34:38;;;;;;;;;;;;;;;4.23;100.00;95474.69;5044969;28;19940;-73
2024/03/01 04:37:04;;;;;;;;;;;;;;;4.26;100.00;95483.88;5044895;28;19964;-73
2024/03/01 04:39:32;;;;;;;;;;;;;;;4.27;100.00;95491.47;5044755;28;20141;-74
2024/03/01 04:41:57;;;;;;;;;;;;;;;4.27;100.00;95485.50;5045352;28;19949;-73
2024/03/01 04:44:23;;;;;;;;;;;;;;;4.28;100.00;95487.06;5045549;28;19946;-74
2024/03/01 04:46:49;;;;;;;;;;;;;;;4.30;100.00;95495.44;5044729;28;19983;-74
2024/03/01 04:49:15;;;;;;;;;;;;;;;4.30;100.00;95485.06;5046220;28;19956;-72
2024/03/01 04:51:41;;;;;;;;;;;;;;;4.32;100.00;95485.66;5046326;28;19979;-73
2024/03/01 04:54:07;;;;;;;;;;;;;;;4.34;100.00;95493.25;5046314;28;19944;-72
2024/03/01 04:56:33;;;;;;;;;;;;;;;4.35;100.00;95490.47;5045110;28;19934;-73
2024/03/01 04:58:59;;;;;;;;;;;;;;;4.36;100.00;95494.66;5045610;28;19940;-72
2024/03/01 05:01:25;;;;;;;;;;;;;;;4.36;100.00;95499.84;5045080;28;20133;-73
2024/03/01 05:03:51;;;;;;;;;;;;;;;4.37;100.00;95503.25;5046166;28;19945;-72
2024/03/01 05:06:17;;;;;;;;;;;;;;;4.39;100.00;95498.63;5028321;28;19937;-71
2024/03/01 05:08:44;;;;;;;;;;;;;;;4.37;100.00;95501.44;5045000;28;20163;-76
2024/03/01 05:11:11;;;;;;;;;;;;;;;4.32;100.00;95497.84;5045451;28;19959;-73
2024/03/01 05:13:37;;;;;;;;;;;;;;;4.29;100.00;95511.25;5045125;28;19944;-72
2024/03/01 05:16:03;;;;;;;;;;;;;;;4.29;100.00;95517.22;5028887;28;19942;-72
2024/03/01 05:18:29;;;;;;;;;;;;;;;4.30;100.00;95507.63;5045495;28;19941;-73
2024/03/01 05:20:55;;;;;;;;;;;;;;;4.30;100.00;95516.22;5028869;28;20146;-72
2024/03/01 05:23:22;;;;;;;;;;;;;;;4.32;100.00;95510.84;5044632;28;19938;-72
2024/03/01 05:25:48;;;;;;;;;;;;;;;4.29;100.00;95514.63;5044575;28;19942;-72
2024/03/01 05:28:14;;;;;;;;;;;;;;;4.26;100.00;95508.06;5045660;28;20214;-72
2024/03/01 05:30:40;;;;;;;;;;;;;;;4.25;100.00;95519.41;5045513;28;19955;-72
2024/03/01 05:33:08;;;;;;;;;;;;;;;4.25;100.00;95521.22;5045580;28;19939;-72
2024/03/01 05:35:35;;;;;;;;;;;;;;;4.25;100.00;95524.59;5029031;28;19985;-71
2024/03/01 05:38:01;;;;;;;;;;;;;;;4.24;100.00;95522.19;5066189;28;19944;-72
2024/03/01 05:40:27;;;;;;;;;;;;;;;4.23;100.00;95536.97;5031098;28;19948;-72
2024/03/01 05:42:53;;;;;;;;;;;;;;;4.24;100.00;95530.81;5048339;28;19942;-74
2024/03/01 05:45:20;;;;;;;;;;;;;;;4.24;100.00;95536.00;5047097;28;20246;-72
2024/03/01 05:47:46;;;;;;;;;;;;;;;4.27;100.00;95535.59;5047458;28;19935;-77
2024/03/01 05:50:13;;;;;;;;;;;;;;;4.31;100.00;95546.38;5030836;28;20011;-78
2024/03/01 05:52:40;;;;;;;;;;;;;;;4.32;100.00;95537.56;5047800;28;20134;-77
2024/03/01 05:55:09;;;;;;;;;;;;;;;4.35;100.00;95536.41;5065118;28;19940;-77
2024/03/01 05:57:35;;;;;;;;;;;;;;;4.37;100.00;95534.41;5065351;28;19943;-78
2024/03/01 06:00:09;;;;;;;;;;;;;;;4.38;100.00;95528.97;5065732;28;19966;-78
2024/03/01 06:02:35;;;;;;;;;;;;;;;4.41;100.00;95538.16;5065564;28;19939;-75
2024/03/01 06:05:02;;;;;;;;;;;;;;;4.45;100.00;95539.34;5064974;28;19934;-74
2024/03/01 06:07:28;;;;;;;;;;;;;;;4.45;100.00;95542.78;5047481;28;20254;-74
2024/03/01 06:09:54;;;;;;;;;;;;;;;4.47;100.00;95539.94;5064687;28;19957;-74
2024/03/01 06:12:19;;;;;;;;;;;;;;;4.50;100.00;95542.16;5065312;28;19935;-73
2024/03/01 06:14:45;;;;;;;;;;;;;;;4.51;100.00;95545.56;5047789;28;19939;-73
2024/03/01 06:17:11;;;;;;;;;;;;;;;4.53;100.00;95548.75;5047569;28;19948;-74
2024/03/01 06:19:37;;;;;;;;;;;;;;;4.55;100.00;95551.94;5047786;28;19946;-74
2024/03/01 06:22:03;;;;;;;;;;;;;;;4.56;100.00;95546.56;5047838;28;19940;-76
2024/03/01 06:24:29;;;;;;;;;;;;;;;4.58;100.00;95546.34;5047167;28;19942;-76
2024/03/01 06:26:55;;;;;;;;;;;;;;;4.61;100.00;95544.13;5047415;28;19945;-78
2024/03/01 06:29:21;;;;;;;;;;;;;;;4.64;100.00;95555.91;5063457;28;19955;-78
2024/03/01 06:31:47;;;;;;;;;;;;;;;4.65;100.00;95554.94;5046807;28;19943;-76
2024/03/01 06:34:12;;;;;;;;;;;;;;;4.67;100.00;95556.31;5047496;28;20225;-78
2024/03/01 06:36:38;;;;;;;;;;;;;;;4.69;100.00;95563.91;5064209;28;20032;-77
2024/03/01 06:39:04;;;;;;;;;;;;;;;4.72;100.00;95560.09;5065174;28;19950;-73
2024/03/01 06:41:30;;;;;;;;;;;;;;;4.76;100.00;95556.09;5030842;28;19940;-77
2024/03/01 06:43:56;;;;;;;;;;;;;;;4.77;100.00;95558.50;5064271;28;19936;-77
2024/03/01 06:46:23;;;;;;;;;;;;;;;4.80;100.00;95558.09;5046462;28;19995;-77
2024/03/01 06:48:49;;;;;;;;;;;;;;;4.85;100.00;95570.44;5047246;28;19946;-78
2024/03/01 06:51:15;;;;;;;;;;;;;;;4.86;100.00;95562.47;5064841;28;19973;-75
2024/03/01 06:53:41;;;;;;;;;;;;;;;4.92;100.00;95562.66;5045739;28;19938;-76
2024/03/01 06:56:07;;;;;;;;;;;;;;;4.95;100.00;95562.25;5064019;28;20251;-72
2024/03/01 06:58:33;;;;;;;;;;;;;;;4.99;100.00;95558.25;5046352;28;19941;-71
2024/03/01 07:01:04;;;;;;;;;;;;;;;4.99;100.00;95553.03;5029726;28;20349;-73
2024/03/01 07:03:30;;;;;;;;;;;;;;;5.00;100.00;95550.25;5046091;28;19942;-74
2024/03/01 07:05:56;;;;;;;;;;;;;;;5.01;100.00;95564.81;5063946;28;20233;-73
2024/03/01 07:08:22;;;;;;;;;;;;;;;5.02;100.00;95553.44;5046075;28;19968;-73
2024/03/01 07:10:48;;;;;;;;;;;;;;;5.05;100.00;95560.81;5064336;28;20176;-74
2024/03/01 07:13:14;;;;;;;;;;;;;;;5.08;100.00;95549.22;5064321;28;19968;-73
2024/03/01 07:15:40;;;;;;;;;;;;;;;5.11;100.00;95548.81;5030218;28;20018;-72
2024/03/01 07:18:05;;;;;;;;;;;;;;;5.15;100.00;95550.00;5046159;28;19999;-73
2024/03/01 07:20:31;;;;;;;;;;;;;;;5.19;100.00;95546.00;5046414;28;19950;-73
2024/03/01 07:22:57;;;;;;;;;;;;;;;5.21;100.00;95549.19;5045890;28;19951;-73
2024/03/01 07:25:23;;;;;;;;;;;;;;;5.26;100.00;95549.34;5046714;28;20001;-73
2024/03/01 07:27:49;;;;;;;;;;;;;;;5.29;100.00;95546.34;5030042;28;20119;-73
2024/03/01 07:30:15;;;;;;;;;;;;;;;5.32;100.00;95560.72;5030029;28;19956;-73
2024/03/01 07:32:41;;;;;;;;;;;;;;;5.35;100.00;95556.91;5046455;28;19948;-73
2024/03/01 07:35:07;;;;;;;;;;;;;;;5.36;100.00;95561.13;5063591;28;19946;-76
2024/03/01 07:37:33;;;;;;;;;;;;;;;5.33;100.00;95562.31;5063488;28;19997;-73
2024/03/01 07:40:00;;;;;;;;;;;;;;;5.31;100.00;95555.72;5064045;28;19942;-74
2024/03/01 07:42:26;;;;;;;;;;;;;;;5.31;100.00;95555.72;5031366;28;20136;-73
2024/03/01 07:44:52;;;;;;;;;;;;;;;5.32;100.00;95552.94;5050598;28;19938;-73
2024/03/01 07:47:18;;;;;;;;;;;;;;;5.36;100.00;95555.94;5049813;28;19940;-74
2024/03/01 07:49:48;;;;;;;;;;;;;;;5.41;100.00;95558.69;5049399;28;19961;-73
2024/03/01 07:52:14;;;;;;;;;;;;;;;5.43;100.00;95554.09;5068285;28;19943;-76
2024/03/01 07:54:39;;;;;;;;;;;;;;;5.46;100.00;95551.09;5050017;28;19934;-71
2024/03/01 07:57:05;;;;;;;;;;;;;;;5.45;100.00;95549.47;5067421;28;19935;-71
2024/03/01 07:59:32;;;;;;;;;;;;;;;5.46;100.00;95546.69;5049925;28;19934;-71
2024/03/01 08:01:58;;;;;;;;;;;;;;;5.51;100.00;95553.06;5067791;28;19942;-71
2024/03/01 08:04:26;;;;;;;;;;;;;;;5.51;100.00;95555.66;5050275;28;20104;-71
2024/03/01 08:06:52;;;;;;;;;;;;;;;5.52;100.00;95563.22;5067258;28;19944;-72
2024/03/01 08:09:21;;;;;;;;;;;;;;;5.56;100.00;95564.41;5067822;28;19954;-72
2024/03/01 08:11:48;;;;;;;;;;;;;;;5.55;100.00;95570.63;5067717;28;19937;-70
2024/03/01 08:14:17;;;;;;;;;;;;;;;5.54;100.00;95571.63;5067119;28;19940;-71
2024/03/01 08:16:43;;;;;;;;;;;;;;;5.54;100.00;95573.44;5067599;28;19939;-71
2024/03/01 08:19:12;;;;;;;;;;;;;;;5.59;100.00;95571.81;5032693;28;19982;-71
2024/03/01 08:21:37;;;;;;;;;;;;;;;5.64;100.00;95571.19;5066939;28;19962;-71
2024/03/01 08:24:03;;;;;;;;;;;;;;;5.72;100.00;95570.94;5066959;28;20223;-71
2024/03/01 08:26:29;;;;;;;;;;;;;;;5.79;100.00;95566.50;5049729;28;19959;-71
2024/03/01 08:28:57;;;;;;;;;;;;;;;5.90;100.00;95565.06;5066866;28;20236;-70
2024/03/01 08:31:25;;;;;;;;;;;;;;;5.97;100.00;95570.25;5066745;28;19952;-77
2024/03/01 08:33:59;;;;;;;;;;;;;;;5.99;100.00;95573.44;5067542;28;20096;-78
2024/03/01 08:36:24;;;;;;;;;;;;;;;6.00;100.00;95564.59;5067064;28;19965;-77
2024/03/01 08:38:58;;;;;;;;;;;;;;;6.03;100.00;95572.00;5067493;28;19940;-77
2024/03/01 08:41:25;;;;;;;;;;;;;;;6.03;100.00;95574.59;5067505;28;19955;-76
2024/03/01 08:43:50;;;;;;;;;;;;;;;6.04;100.00;95571.78;5067091;28;20206;-77
2024/03/01 08:46:36;;;;;;;;;;;;;;;6.10;100.00;95567.53;5066934;28;19936;-77
2024/03/01 08:49:21;;;;;;;;;;;;;;;6.09;100.00;95569.34;5066186;28;20133;-71
2024/03/01 08:51:47;;;;;;;;;;;;;;;6.15;100.00;95565.09;5049349;28;20131;-74
2024/03/01 08:54:13;;;;;;;;;;;;;;;6.20;100.00;95562.66;5065194;28;19973;-74
2024/03/01 08:56:39;;;;;;;;;;;;;;;6.21;100.00;95563.44;5067044;28;19942;-73
2024/03/01 08:59:20;;;;;;;;;;;;;;;6.25;100.00;95569.84;5066798;28;19939;-74
2024/03/01 09:01:47;;;;;;;;;;;;;;;6.27;100.00;95566.00;5066746;28;19938;-73
2024/03/01 09:04:17;;;;;;;;;;;;;;;6.35;100.00;95570.16;5066953;28;19944;-75
2024/03/01 09:06:42;;;;;;;;;;;;;;;6.43;100.00;95569.09;5048278;28;20229;-73
2024/03/01 09:09:19;;;;;;;;;;;;;;;6.46;100.00;95571.28;5048263;28;20025;-71
2024/03/01 09:11:45;;;;;;;;;;;;;;;6.44;100.00;95588.91;5066694;28;19965;-71
2024/03/01 09:14:19;;;;;;;;;;;;;;;6.36;100.00;95582.16;5048800;28;19941;-71
2024/03/01 09:16:44;;;;;;;;;;;;;;;6.31;100.00;95584.59;5066231;28;19941;-71
2024/03/01 09:19:17;;;;;;;;;;;;;;;6.32;100.00;95588.00;5066678;28;20150;-71
2024/03/01 09:21:44;;;;;;;;;;;;;;;6.34;100.00;95585.97;5048720;28;19945;-71
2024/03/01 09:24:11;;;;;;;;;;;;;;;6.36;100.00;95592.56;5066103;28;19938;-70
2024/03/01 09:26:37;;;;;;;;;;;;;;;6.39;100.00;95597.38;5065726;28;19940;-78
2024/03/01 09:29:04;;;;;;;;;;;;;;;6.41;100.00;95591.97;5066498;28;19949;-78
2024/03/01 09:31:31;;;;;;;;;;;;;;;6.44;100.00;95588.91;5065605;28;19953;-78
2024/03/01 09:34:01;;;;;;;;;;;;;;;6.48;100.00;95593.47;5066473;28;19960;-78
2024/03/01 09:36:28;;;;;;;;;;;;;;;6.53;100.00;95592.88;5065678;28;19985;-78
2024/03/01 09:38:54;;;;;;;;;;;;;;;6.55;100.00;95595.22;5065548;28;20100;-80
2024/03/01 09:41:43;;;;;;;;;;;;;;;6.59;100.00;95601.63;5065511;28;19941;-79
2024/03/01 09:44:23;;;;;;;;;;;;;;;6.59;100.00;95597.19;5065955;28;19937;-71
2024/03/01 09:46:49;;;;;;;;;;;;;;;6.60;100.00;95593.59;5048359;28;19940;-80
2024/03/01 09:49:16;;;;;;;;;;;;;;;6.64;100.00;95593.97;5065824;28;19947;-81
2024/03/01 09:51:50;;;;;;;;;;;;;;;6.67;100.00;95590.94;5065537;28;20266;-81
2024/03/01 09:54:22;;;;;;;;;;;;;;;6.71;100.00;95592.88;5066123;28;19939;-81
2024/03/01 09:56:54;;;;;;;;;;;;;;;6.74;100.00;95583.88;5065314;28;20116;-81
2024/03/01 09:59:19;;;;;;;;;;;;;;;6.80;100.00;95582.19;5065802;28;19960;-81
2024/03/01 10:01:49;;;;;;;;;;;;;;;6.79;100.00;95578.00;5047472;28;20020;-74
2024/03/01 10:04:37;;;;;;;;;;;;;;;6.82;100.00;95585.38;5046622;28;19949;-69
2024/03/01 10:07:22;;;;;;;;;;;;;;;6.90;100.00;95578.06;5065308;28;20236;-70
2024/03/01 10:09:48;;;;;;;;;;;;;;;6.99;100.00;95576.00;5064598;28;19950;-69
2024/03/01 10:12:24;;;;;;;;;;;;;;;7.04;100.00;95575.34;5064817;28;20124;-70
2024/03/01 10:14:59;;;;;;;;;;;;;;;7.07;100.00;95578.31;5046978;28;20132;-69
2024/03/01 10:17:25;;;;;;;;;;;;;;;7.06;100.00;95570.72;5047625;28;19949;-69
2024/03/01 10:20:00;;;;;;;;;;;;;;;7.09;100.00;95576.28;5064996;28;19944;-72
2024/03/01 10:22:42;;;;;;;;;;;;;;;7.18;100.00;95574.19;5047201;28;19940;-72
2024/03/01 10:25:08;;;;;;;;;;;;;;;7.28;100.00;95577.06;5064659;28;19950;-72
2024/03/01 10:27:36;;;;;;;;;;;;;;;7.39;100.00;95575.56;5064566;28;19935;-72
2024/03/01 10:30:10;;;;;;;;;;;;;;;7.50;100.00;95571.41;5065001;28;19978;-72
2024/03/01 10:32:39;;;;;;;;;;;;;;;7.61;100.00;95573.28;5065360;28;19942;-72
2024/03/01 10:35:09;;;;;;;;;;;;;;;7.71;100.00;95565.72;5064463;28;19940;-72
2024/03/01 10:37:37;;;;;;;;;;;;;;;7.81;100.00;95567.00;5064311;28;19976;-74
2024/03/01 10:40:17;;;;;;;;;;;;;;;7.92;100.00;95582.72;5046742;28;20245;-73
2024/03/01 10:43:06;;;;;;;;;;;;;;;8.03;100.00;95573.31;5064442;28;19932;-70
2024/03/01 10:45:37;;;;;;;;;;;;;;;8.14;100.00;95579.59;5064334;28;19936;-70
2024/03/01 10:48:04;;;;;;;;;;;;;;;8.24;100.00;95569.38;5064570;28;20133;-70
2024/03/01 10:50:34;;;;;;;;;;;;;;;8.36;100.00;95568.59;5064099;28;20019;-70
2024/03/01 10:53:19;;;;;;;;;;;;;;;8.41;100.00;95560.94;5064155;28;20239;-70
2024/03/01 10:55:49;;;;;;;;;;;;;;;8.49;100.00;95560.59;5064153;28;19939;-70
2024/03/01 10:58:16;;;;;;;;;;;;;;;8.54;100.00;95545.81;5029919;28;19944;-71
2024/03/01 11:00:48;;;;;;;;;;;;;;;8.58;100.00;95563.66;5064842;28;19931;-77
2024/03/01 11:03:26;;;;;;;;;;;;;;;8.68;100.00;95564.69;5064550;28;19948;-76
2024/03/01 11:06:16;;;;;;;;;;;;;;;8.87;100.00;95562.75;5047038;28;19942;-76
2024/03/01 11:08:51;;;;;;;;;;;;;;;9.07;100.00;95561.59;5064048;28;19960;-76
2024/03/01 11:11:20;;;;;;;;;;;;;;;9.20;100.00;95547.47;5064080;28;19957;-76
2024/03/01 11:13:48;;;;;;;;;;;;;;;9.35;100.00;95547.78;5064425;28;19940;-76
2024/03/01 11:16:15;;;;;;;;;;;;;;;9.44;100.00;95549.00;5063219;28;20223;-74
2024/03/01 11:18:44;;;;;;;;;;;;;;;9.44;100.00;95551.63;5063817;28;19944;-73
2024/03/01 11:21:13;;;;;;;;;;;;;;;9.40;100.00;95547.88;5063809;28;19995;-72
2024/03/01 11:23:40;;;;;;;;;;;;;;;9.34;100.00;95540.94;5064320;28;19936;-72
2024/03/01 11:26:21;;;;;;;;;;;;;;;9.25;100.00;95529.28;5063753;28;19945;-72
2024/03/01 11:28:54;;;;;;;;;;;;;;;9.09;100.00;95531.59;5046787;28;20215;-72
2024/03/01 11:31:25;;;;;;;;;;;;;;;9.07;100.00;95548.50;5064233;28;19959;-73
2024/03/01 11:33:52;;;;;;;;;;;;;;;9.12;100.00;95535.56;5064258;28;19939;-78
2024/03/01 11:36:37;;;;;;;;;;;;;;;9.19;100.00;95533.59;5063728;28;20159;-72
2024/03/01 11:39:15;;;;;;;;;;;;;;;9.21;100.00;95526.31;5064293;28;19945;-71
2024/03/01 11:41:43;;;;;;;;;;;;;;;9.16;100.00;95517.59;5046741;28;19951;-71
2024/03/01 11:44:29;;;;;;;;;;;;;;;9.16;100.00;95530.66;5063712;28;19940;-71
2024/03/01 11:46:54;;;;;;;;;;;;;;;9.16;100.00;95514.97;5046394;28;19951;-71
2024/03/01 11:49:33;;;;;;;;;;;;;;;9.16;100.00;95520.22;5063681;28;20002;-71
2024/03/01 11:52:17;;;;;;;;;;;;;;;9.10;100.00;95507.00;5063951;28;19955;-70
2024/03/01 11:54:56;;;;;;;;;;;;;;;9.06;100.00;95495.41;5063488;28;19937;-77
2024/03/01 11:57:42;;;;;;;;;;;;;;;9.06;100.00;95515.56;5064094;28;20111;-77
2024/03/01 12:00:26;;;;;;;;;;;;;;;9.10;100.00;95503.59;5043080;28;20007;-76
2024/03/01 12:03:02;;;;;;;;;;;;;;;9.20;100.00;95516.91;5063416;28;19965;-76
2024/03/01 12:05:27;;;;;;;;;;;;;;;9.29;100.00;95510.25;5063381;28;20224;-76
2024/03/01 12:08:12;;;;;;;;;;;;;;;9.41;100.00;95505.00;5046310;28;20030;-77
2024/03/01 12:10:56;;;;;;;;;;;;;;;9.50;100.00;95503.59;5063224;28;19956;-76
2024/03/01 12:13:23;;;;;;;;;;;;;;;9.55;100.00;95495.84;5046285;28;19945;-78
2024/03/01 12:15:59;;;;;;;;;;;;;;;9.55;100.00;95495.84;5063278;28;19960;-78
2024/03/01 12:18:37;;;;;;;;;;;;;;;9.54;100.00;95483.78;5063186;28;19946;-78
2024/03/01 12:21:10;;;;;;;;;;;;;;;9.46;100.00;95475.50;5063249;28;20129;-78
2024/03/01 12:23:41;;;;;;;;;;;;;;;9.44;100.00;95494.06;5063684;28;19986;-77
2024/03/01 12:26:08;;;;;;;;;;;;;;;9.52;100.00;95495.50;5063748;28;19944;-78
2024/03/01 12:28:58;;;;;;;;;;;;;;;9.63;100.00;95486.00;5065089;28;19937;-79
2024/03/01 12:31:47;;;;;;;;;;;;;;;9.64;100.00;95458.78;5067302;28;20129;-77
2024/03/01 12:34:17;;;;;;;;;;;;;;;9.68;100.00;95470.38;5067356;28;20228;-77
2024/03/01 12:36:51;;;;;;;;;;;;;;;9.73;100.00;95471.28;5066652;28;20259;-76
2024/03/01 12:39:20;;;;;;;;;;;;;;;9.78;100.00;95475.78;5049660;28;19937;-77
2024/03/01 12:41:53;;;;;;;;;;;;;;;9.81;100.00;95443.13;5065586;28;19941;-77
2024/03/01 12:44:37;;;;;;;;;;;;;;;9.80;100.00;95458.03;5032964;28;19947;-77
2024/03/01 12:47:22;;;;;;;;;;;;;;;9.80;100.00;95465.09;5067185;28;19936;-74
2024/03/01 12:49:58;;;;;;;;;;;;;;;9.77;100.00;95461.13;5066322;28;19947;-72
2024/03/01 12:52:37;;;;;;;;;;;;;;;9.75;100.00;95458.75;5066181;28;20001;-71
2024/03/01 12:55:08;;;;;;;;;;;;;;;9.70;100.00;95444.75;5048966;28;19948;-71